createdAt,value
2023-01-13T00:01:40.086Z,8.50
2023-01-13T00:04:12.345Z,7.60
2023-01-13T00:06:42.976Z,6.30
2023-01-13T00:09:13.658Z,9.00
2023-01-13T00:11:44.389Z,8.43
2023-01-13T00:14:15.095Z,7.03
2023-01-13T00:16:45.704Z,9.20
2023-01-13T00:19:16.355Z,8.63
2023-01-13T00:21:47.071Z,7.63
2023-01-13T00:24:17.743Z,6.33
2023-01-13T00:26:48.361Z,9.70
2023-01-13T00:29:19.404Z,7.97
2023-01-13T00:31:51.737Z,8.53
2023-01-13T00:34:40.974Z,8.77
2023-01-13T00:37:13.206Z,9.20
2023-01-13T00:39:43.939Z,8.53
2023-01-13T00:42:32.052Z,7.93
2023-01-13T00:45:02.714Z,7.20
2023-01-13T00:47:33.340Z,7.50
2023-01-13T00:50:03.975Z,8.03
2023-01-13T00:52:35.873Z,6.83
2023-01-13T00:55:08.762Z,8.10
2023-01-13T00:57:40.324Z,7.87
2023-01-13T01:00:14.700Z,8.27
2023-01-13T01:02:45.498Z,7.17
2023-01-13T01:05:16.447Z,9.70
2023-01-13T01:07:47.090Z,7.70
2023-01-13T01:10:18.570Z,8.30
2023-01-13T01:12:51.027Z,7.97
2023-01-13T01:15:21.769Z,7.83
2023-01-13T01:17:52.460Z,7.97
2023-01-13T01:20:23.206Z,7.53
2023-01-13T01:22:53.952Z,6.43
2023-01-13T01:25:24.796Z,5.70
2023-01-13T01:27:56.423Z,6.63
2023-01-13T01:30:27.197Z,6.47
2023-01-13T01:32:58.235Z,5.87
2023-01-13T01:35:28.895Z,7.13
2023-01-13T01:37:59.540Z,8.03
2023-01-13T01:40:30.436Z,7.80
2023-01-13T01:43:18.808Z,8.47
2023-01-13T01:45:51.057Z,7.93
2023-01-13T01:48:22.007Z,8.00
2023-01-13T01:50:53.354Z,8.13
2023-01-13T01:53:26.373Z,6.43
2023-01-13T01:55:58.725Z,7.03
2023-01-13T01:58:32.679Z,6.67
2023-01-13T02:01:03.703Z,7.00
2023-01-13T02:03:36.643Z,6.77
2023-01-13T02:06:08.251Z,6.67
2023-01-13T02:08:40.700Z,6.77
2023-01-13T02:11:29.248Z,6.90
2023-01-13T02:14:00.082Z,7.67
2023-01-13T02:16:31.044Z,8.20
2023-01-13T02:19:05.075Z,6.60
2023-01-13T02:22:04.539Z,6.87
2023-01-13T02:25:06.154Z,7.60
2023-01-13T02:28:05.466Z,6.50
2023-01-13T02:31:04.265Z,8.10
2023-01-13T02:33:42.232Z,8.00
2023-01-13T02:36:19.419Z,9.03
2023-01-13T02:38:54.670Z,9.00
2023-01-13T02:41:47.287Z,8.43
2023-01-13T02:44:21.114Z,10.87
2023-01-13T02:46:56.727Z,11.73
2023-01-13T02:49:32.609Z,12.33
2023-01-13T02:52:07.649Z,10.60
2023-01-13T02:54:42.040Z,10.40
2023-01-13T02:57:15.332Z,10.47
2023-01-13T02:59:46.159Z,10.67
2023-01-13T03:02:20.368Z,10.93
2023-01-13T03:04:56.937Z,10.67
2023-01-13T03:07:50.359Z,8.77
2023-01-13T03:10:29.674Z,9.57
2023-01-13T03:13:05.774Z,9.63
2023-01-13T03:15:42.963Z,9.93
2023-01-13T03:18:22.332Z,10.53
2023-01-13T03:20:58.076Z,10.30
2023-01-13T03:23:33.076Z,10.53
2023-01-13T03:26:09.491Z,10.53
2023-01-13T03:28:44.070Z,10.67
2023-01-13T03:31:18.018Z,10.10
2023-01-13T03:33:51.867Z,9.60
2023-01-13T03:36:26.111Z,10.40
2023-01-13T03:38:59.912Z,11.00
2023-01-13T03:41:33.303Z,9.73
2023-01-13T03:44:27.445Z,10.83
2023-01-13T03:47:07.217Z,11.47
2023-01-13T03:49:40.957Z,9.73
2023-01-13T03:52:14.125Z,10.77
2023-01-13T03:54:50.364Z,11.33
2023-01-13T03:57:24.008Z,11.00
2023-01-13T04:00:14.883Z,11.20
2023-01-13T04:02:53.201Z,10.97
2023-01-13T04:05:24.981Z,10.93
2023-01-13T04:08:00.040Z,10.83
2023-01-13T04:10:34.503Z,9.63
2023-01-13T04:13:07.896Z,11.10
2023-01-13T04:15:40.734Z,9.87
2023-01-13T04:18:18.964Z,9.40
2023-01-13T04:20:51.825Z,9.67
2023-01-13T04:23:23.133Z,8.87
2023-01-13T04:25:54.791Z,10.40
2023-01-13T04:28:26.321Z,10.00
2023-01-13T04:30:56.971Z,10.13
2023-01-13T04:33:27.743Z,9.97
2023-01-13T04:35:58.581Z,10.03
2023-01-13T04:38:29.293Z,10.90
2023-01-13T04:40:59.933Z,10.33
2023-01-13T04:43:30.661Z,10.50
2023-01-13T04:46:01.537Z,11.23
2023-01-13T04:48:32.303Z,11.37
2023-01-13T04:51:03.109Z,10.87
2023-01-13T04:53:33.720Z,10.20
2023-01-13T04:56:04.570Z,10.77
2023-01-13T04:58:35.283Z,10.97
2023-01-13T05:01:05.961Z,11.00
2023-01-13T05:03:36.792Z,10.73
2023-01-13T05:06:08.230Z,11.43
2023-01-13T05:08:38.945Z,10.83
2023-01-13T05:11:28.693Z,11.10
2023-01-13T05:14:16.706Z,10.33
2023-01-13T05:17:03.760Z,8.83
2023-01-13T05:19:36.653Z,8.37
2023-01-13T05:22:25.511Z,8.30
2023-01-13T05:25:13.997Z,9.13
2023-01-13T05:27:44.649Z,9.33
2023-01-13T05:30:16.297Z,8.63
2023-01-13T05:32:47.094Z,9.20
2023-01-13T05:35:18.379Z,10.30
2023-01-13T05:37:49.446Z,10.40
2023-01-13T05:40:39.170Z,13.90
2023-01-13T05:43:21.922Z,13.53
2023-01-13T05:45:55.187Z,12.90
2023-01-13T05:48:27.999Z,12.90
2023-01-13T05:50:59.108Z,13.77
2023-01-13T05:53:29.884Z,14.67
2023-01-13T05:56:01.364Z,13.53
2023-01-13T05:58:32.091Z,14.67
2023-01-13T06:01:04.376Z,13.87
2023-01-13T06:03:35.647Z,14.10
2023-01-13T06:06:08.380Z,12.30
2023-01-13T06:11:16.496Z,10.40
2023-01-13T06:13:47.126Z,13.37
2023-01-13T06:16:17.913Z,12.77
2023-01-13T06:18:48.608Z,11.83
2023-01-13T06:21:19.205Z,12.87
2023-01-13T06:23:49.986Z,12.13
2023-01-13T06:26:23.273Z,12.50
2023-01-13T06:28:55.319Z,11.97
2023-01-13T06:31:28.766Z,12.03
2023-01-13T06:34:02.383Z,11.93
2023-01-13T06:36:36.250Z,12.13
2023-01-13T06:39:07.372Z,13.22
2023-01-13T06:41:56.239Z,10.53
2023-01-13T06:44:27.555Z,13.43
2023-01-13T06:46:58.344Z,17.27
2023-01-13T06:49:29.365Z,15.97
2023-01-13T06:51:59.925Z,14.43
2023-01-13T06:54:30.650Z,13.73
2023-01-13T06:57:01.232Z,13.03
2023-01-13T06:59:33.520Z,14.23
2023-01-13T07:02:04.294Z,13.07
2023-01-13T07:04:35.249Z,14.03
2023-01-13T07:07:07.878Z,12.97
2023-01-13T07:09:38.767Z,12.67
2023-01-13T07:12:10.108Z,12.93
2023-01-13T07:14:58.397Z,14.20
2023-01-13T07:20:07.177Z,12.03
2023-01-13T07:22:37.761Z,12.40
2023-01-13T07:25:11.306Z,13.17
2023-01-13T07:27:42.208Z,11.33
2023-01-13T07:30:15.583Z,11.60
2023-01-13T07:32:46.415Z,7.17
2023-01-13T07:35:19.099Z,9.13
2023-01-13T07:37:51.570Z,13.63
2023-01-13T07:40:22.698Z,10.23
2023-01-13T07:43:10.992Z,11.40
2023-01-13T07:45:41.774Z,12.03
2023-01-13T07:48:12.558Z,11.30
2023-01-13T07:50:44.231Z,11.90
2023-01-13T07:53:33.956Z,12.03
2023-01-13T07:56:06.825Z,11.77
2023-01-13T07:58:38.647Z,12.17
2023-01-13T08:01:14.113Z,11.13
2023-01-13T08:03:45.195Z,14.73
2023-01-13T08:06:16.796Z,14.33
2023-01-13T08:08:47.752Z,19.47
2023-01-13T08:11:19.606Z,29.43
2023-01-13T08:13:51.832Z,25.83
2023-01-13T08:16:22.766Z,23.73
2023-01-13T08:18:54.028Z,23.33
2023-01-13T08:21:24.784Z,16.30
2023-01-13T08:23:56.062Z,15.80
2023-01-13T08:26:28.171Z,13.30
2023-01-13T08:28:59.005Z,12.43
2023-01-13T08:31:30.026Z,12.73
2023-01-13T08:34:01.109Z,12.73
2023-01-13T08:36:32.047Z,12.20
2023-01-13T08:41:58.810Z,13.57
2023-01-13T08:44:31.734Z,13.40
2023-01-13T08:47:03.063Z,15.00
2023-01-13T08:49:34.086Z,13.07
2023-01-13T08:54:44.598Z,13.17
2023-01-13T08:57:16.183Z,13.27
2023-01-13T08:59:47.394Z,12.67
2023-01-13T09:02:20.307Z,9.30
2023-01-13T09:04:51.734Z,6.90
2023-01-13T09:07:22.807Z,8.03
2023-01-13T09:09:53.439Z,7.80
2023-01-13T09:12:41.743Z,7.80
2023-01-13T09:15:13.458Z,8.50
2023-01-13T09:17:44.092Z,8.47
2023-01-13T09:20:16.141Z,8.00
2023-01-13T09:22:46.725Z,9.47
2023-01-13T09:25:17.519Z,8.00
2023-01-13T09:27:48.131Z,8.83
2023-01-13T09:30:19.467Z,9.70
2023-01-13T09:35:29.934Z,10.77
2023-01-13T09:38:00.605Z,9.37
2023-01-13T09:40:31.421Z,9.90
2023-01-13T09:43:22.505Z,9.50
2023-01-13T09:45:56.572Z,10.87
2023-01-13T09:51:12.801Z,9.00
2023-01-13T09:53:46.563Z,8.90
2023-01-13T09:56:17.429Z,7.73
2023-01-13T09:58:49.426Z,8.07
2023-01-13T10:01:23.287Z,8.70
2023-01-13T10:03:55.086Z,8.90
2023-01-13T10:06:29.344Z,9.17
2023-01-13T10:09:00.745Z,13.47
2023-01-13T10:12:04.624Z,12.50
2023-01-13T10:14:38.708Z,12.67
2023-01-13T10:19:51.447Z,11.47
2023-01-13T10:22:31.920Z,10.63
2023-01-13T10:25:33.547Z,10.43
2023-01-13T10:28:11.129Z,10.50
2023-01-13T10:30:44.130Z,9.63
2023-01-13T10:33:17.728Z,10.03
2023-01-13T10:35:54.415Z,9.83
2023-01-13T10:38:29.137Z,10.10
2023-01-13T10:41:01.455Z,9.97
2023-01-13T10:43:33.180Z,9.43
2023-01-13T10:46:07.089Z,10.03
2023-01-13T10:48:40.948Z,9.63
2023-01-13T10:51:30.002Z,9.50
2023-01-13T10:54:03.386Z,9.57
2023-01-13T10:56:36.101Z,9.73
2023-01-13T10:59:16.152Z,9.03
2023-01-13T11:04:39.449Z,8.87
2023-01-13T11:10:09.241Z,7.07
2023-01-13T11:15:24.284Z,8.00
2023-01-13T11:17:59.751Z,7.93
2023-01-13T11:20:36.253Z,7.23
2023-01-13T11:23:11.054Z,8.13
2023-01-13T11:25:44.997Z,7.57
2023-01-13T11:28:49.747Z,7.10
2023-01-13T11:31:25.271Z,6.80
2023-01-13T11:34:00.114Z,6.77
2023-01-13T11:36:35.319Z,7.10
2023-01-13T11:39:09.549Z,7.13
2023-01-13T11:41:46.507Z,6.20
2023-01-13T11:44:21.888Z,6.00
2023-01-13T11:46:55.522Z,5.33
2023-01-13T11:49:29.539Z,5.60
2023-01-13T11:52:04.516Z,5.10
2023-01-13T11:54:49.827Z,4.67
2023-01-13T11:57:37.333Z,4.67
2023-01-13T12:03:27.224Z,3.97
2023-01-13T12:06:14.206Z,3.63
2023-01-13T12:09:11.580Z,3.20
2023-01-13T12:12:05.010Z,3.63
2023-01-13T12:14:40.391Z,3.77
2023-01-13T12:17:15.166Z,3.37
2023-01-13T12:19:48.766Z,3.10
2023-01-13T12:22:23.531Z,3.30
2023-01-13T12:24:58.263Z,3.60
2023-01-13T12:27:35.164Z,2.77
2023-01-13T12:30:13.691Z,3.00
2023-01-13T12:32:45.534Z,2.90
2023-01-13T12:35:26.472Z,3.10
2023-01-13T12:38:00.312Z,2.60
2023-01-13T12:40:42.887Z,3.00
2023-01-13T12:43:36.063Z,2.47
2023-01-13T12:47:01.743Z,3.03
2023-01-13T12:49:34.856Z,3.20
2023-01-13T12:52:22.403Z,3.17
2023-01-13T12:55:17.375Z,3.80
2023-01-13T12:58:21.443Z,3.43
2023-01-13T13:01:03.465Z,3.10
2023-01-13T13:03:37.076Z,3.67
2023-01-13T13:06:17.593Z,3.70
2023-01-13T13:08:55.294Z,3.20
2023-01-13T13:11:57.181Z,3.23
2023-01-13T13:15:16.332Z,3.43
2023-01-13T13:17:50.522Z,3.07
2023-01-13T13:20:56.175Z,2.90
2023-01-13T13:23:44.426Z,2.57
2023-01-13T13:26:45.989Z,2.77
2023-01-13T13:29:46.188Z,2.43
2023-01-13T13:32:56.665Z,2.63
2023-01-13T13:35:49.443Z,2.27
2023-01-13T13:38:46.842Z,2.47
2023-01-13T13:41:51.802Z,2.70
2023-01-13T13:44:43.250Z,2.23
2023-01-13T13:47:26.004Z,2.90
2023-01-13T13:49:57.024Z,2.67
2023-01-13T13:52:30.698Z,2.40
2023-01-13T13:55:04.439Z,2.53
2023-01-13T13:57:39.829Z,2.90
2023-01-13T14:00:19.407Z,2.97
2023-01-13T14:02:54.215Z,3.23
2023-01-13T14:05:29.007Z,3.17
2023-01-13T14:08:05.369Z,2.40
2023-01-13T14:10:38.134Z,2.57
2023-01-13T14:13:18.582Z,3.13
2023-01-13T14:15:51.276Z,2.87
2023-01-13T14:18:23.340Z,2.67
2023-01-13T14:20:59.678Z,2.60
2023-01-13T14:23:33.026Z,2.70
2023-01-13T14:26:07.206Z,2.80
2023-01-13T14:28:40.253Z,2.30
2023-01-13T14:31:12.319Z,2.70
2023-01-13T14:33:46.165Z,2.53
2023-01-13T14:36:21.159Z,2.50
2023-01-13T14:38:54.187Z,2.63
2023-01-13T14:41:27.970Z,2.87
2023-01-13T14:44:01.732Z,3.47
2023-01-13T14:46:40.909Z,3.67
2023-01-13T14:49:18.871Z,3.40
2023-01-13T14:51:49.968Z,4.07
2023-01-13T14:54:45.946Z,3.90
2023-01-13T14:57:19.993Z,3.20
2023-01-13T15:00:00.445Z,3.60
2023-01-13T15:02:40.241Z,3.20
2023-01-13T15:05:39.092Z,2.90
2023-01-13T15:08:42.385Z,3.10
2023-01-13T15:11:24.826Z,3.17
2023-01-13T15:14:01.345Z,2.57
2023-01-13T15:16:34.967Z,2.30
2023-01-13T15:19:05.614Z,2.67
2023-01-13T15:21:36.975Z,2.70
2023-01-13T15:24:09.099Z,2.90
2023-01-13T15:26:39.861Z,2.80
2023-01-13T15:29:15.001Z,3.27
2023-01-13T15:31:45.588Z,2.80
2023-01-13T15:34:16.428Z,3.90
2023-01-13T15:36:46.999Z,3.87
2023-01-13T15:39:17.629Z,3.90
2023-01-13T15:42:05.925Z,4.23
2023-01-13T15:44:54.473Z,4.60
2023-01-13T15:47:26.445Z,3.97
2023-01-13T15:49:57.334Z,4.03
2023-01-13T15:52:29.003Z,3.90
2023-01-13T15:54:59.810Z,3.60
2023-01-13T15:57:33.036Z,4.00
2023-01-13T16:00:08.528Z,4.50
2023-01-13T16:02:39.195Z,4.80
2023-01-13T16:05:10.612Z,3.80
2023-01-13T16:07:41.531Z,3.47
2023-01-13T16:12:56.208Z,3.43
2023-01-13T16:15:27.263Z,3.30
2023-01-13T16:18:00.650Z,3.33
2023-01-13T16:20:31.653Z,3.47
2023-01-13T16:23:02.352Z,2.97
2023-01-13T16:25:33.109Z,3.13
2023-01-13T16:28:03.777Z,3.00
2023-01-13T16:30:40.212Z,3.27
2023-01-13T16:33:11.208Z,3.43
2023-01-13T16:35:43.983Z,3.17
2023-01-13T16:38:19.347Z,3.23
2023-01-13T16:40:51.578Z,3.27
2023-01-13T16:43:22.283Z,3.03
2023-01-13T16:45:53.088Z,3.07
2023-01-13T16:48:23.919Z,3.33
2023-01-13T16:50:55.045Z,2.97
2023-01-13T16:53:25.723Z,2.40
2023-01-13T16:55:56.585Z,2.80
2023-01-13T16:58:27.231Z,2.50
2023-01-13T17:00:58.006Z,3.33
2023-01-13T17:03:30.198Z,4.80
2023-01-13T17:06:04.559Z,5.80
2023-01-13T17:08:35.308Z,5.73
2023-01-13T17:11:06.293Z,5.37
2023-01-13T17:13:37.027Z,5.80
2023-01-13T17:16:11.957Z,6.10
2023-01-13T17:18:42.658Z,5.73
2023-01-13T17:21:13.388Z,7.17
2023-01-13T17:23:44.216Z,4.30
2023-01-13T17:29:15.414Z,3.90
2023-01-13T17:31:46.504Z,3.90
2023-01-13T17:34:17.263Z,4.73
2023-01-13T17:36:47.936Z,4.43
2023-01-13T17:39:20.276Z,3.57
2023-01-13T17:41:51.345Z,4.87
2023-01-13T17:44:23.688Z,5.53
2023-01-13T17:46:54.592Z,6.10
2023-01-13T17:49:25.552Z,6.00
2023-01-13T17:51:56.279Z,8.57
2023-01-13T17:54:27.397Z,8.73
2023-01-13T17:56:58.096Z,7.30
2023-01-13T17:59:28.750Z,7.80
2023-01-13T18:01:59.685Z,7.20
2023-01-13T18:04:31.077Z,7.17
2023-01-13T18:07:01.968Z,7.23
2023-01-13T18:09:33.309Z,6.90
2023-01-13T18:12:04.554Z,7.03
2023-01-13T18:14:35.467Z,6.43
2023-01-13T18:17:06.387Z,6.80
2023-01-13T18:19:54.654Z,7.43
2023-01-13T18:22:51.271Z,7.53
2023-01-13T18:25:39.854Z,7.10
2023-01-13T18:28:10.728Z,6.40
2023-01-13T18:30:41.303Z,7.33
2023-01-13T18:33:11.924Z,8.07
2023-01-13T18:35:42.734Z,6.00
2023-01-13T18:38:14.469Z,6.73
2023-01-13T18:40:46.413Z,6.30
2023-01-13T18:43:17.005Z,4.17
2023-01-13T18:48:32.937Z,7.07
2023-01-13T18:51:03.609Z,7.20
2023-01-13T18:53:34.278Z,8.50
2023-01-13T18:56:06.883Z,9.40
2023-01-13T18:58:37.584Z,8.70
2023-01-13T19:01:10.096Z,6.50
2023-01-13T19:03:40.836Z,8.07
2023-01-13T19:06:12.612Z,8.70
2023-01-13T19:08:44.253Z,10.20
2023-01-13T19:11:14.859Z,11.23
2023-01-13T19:13:45.502Z,10.43
2023-01-13T19:16:16.733Z,10.83
2023-01-13T19:18:47.734Z,9.83
2023-01-13T19:23:58.092Z,10.07
2023-01-13T19:26:29.033Z,9.40
2023-01-13T19:28:59.599Z,9.30
2023-01-13T19:31:30.305Z,9.73
2023-01-13T19:34:01.116Z,10.00
2023-01-13T19:36:31.824Z,10.55
2023-01-13T19:39:02.561Z,9.97
2023-01-13T19:41:51.091Z,9.33
2023-01-13T19:44:39.521Z,9.70
2023-01-13T19:47:10.225Z,9.33
2023-01-13T19:49:40.927Z,10.30
2023-01-13T19:52:11.774Z,8.63
2023-01-13T19:54:42.553Z,8.10
2023-01-13T19:57:13.780Z,9.70
2023-01-13T19:59:44.929Z,8.50
2023-01-13T20:02:17.690Z,9.33
2023-01-13T20:04:49.191Z,8.30
2023-01-13T20:07:19.847Z,7.70
2023-01-13T20:09:50.488Z,8.27
2023-01-13T20:12:21.910Z,8.80
2023-01-13T20:14:52.668Z,8.70
2023-01-13T20:17:25.786Z,7.20
2023-01-13T20:19:56.460Z,7.63
2023-01-13T20:22:27.532Z,6.43
2023-01-13T20:24:59.226Z,6.83
2023-01-13T20:27:29.976Z,8.10
2023-01-13T20:30:00.568Z,6.60
2023-01-13T20:32:31.511Z,6.00
2023-01-13T20:35:02.163Z,5.50
2023-01-13T20:37:32.818Z,9.07
2023-01-13T20:40:05.064Z,5.33
2023-01-13T20:42:42.239Z,5.73
2023-01-13T20:45:17.758Z,5.77
2023-01-13T20:47:48.750Z,6.77
2023-01-13T20:50:19.864Z,8.60
2023-01-13T20:52:52.144Z,7.37
2023-01-13T20:55:23.389Z,5.40
2023-01-13T20:57:54.007Z,5.10
2023-01-13T21:00:25.480Z,5.67
2023-01-13T21:02:56.233Z,7.10
2023-01-13T21:05:28.197Z,6.07
2023-01-13T21:07:58.789Z,4.90
2023-01-13T21:10:29.516Z,5.30
2023-01-13T21:13:17.663Z,8.47
2023-01-13T21:15:50.396Z,10.67
2023-01-13T21:18:52.141Z,4.40
2023-01-13T21:21:22.877Z,4.23
2023-01-13T21:23:54.211Z,4.80
2023-01-13T21:26:24.839Z,5.23
2023-01-13T21:31:37.264Z,5.67
2023-01-13T21:34:08.062Z,6.33
2023-01-13T21:36:38.746Z,5.97
2023-01-13T21:39:10.452Z,4.40
2023-01-13T21:41:58.831Z,4.00
2023-01-13T21:44:47.023Z,3.63
2023-01-13T21:47:37.099Z,6.27
2023-01-13T21:50:11.364Z,5.10
2023-01-13T21:52:42.773Z,7.77
2023-01-13T21:55:28.798Z,9.63
2023-01-13T21:58:01.515Z,9.90
2023-01-13T22:00:34.333Z,8.17
2023-01-13T22:03:06.675Z,9.43
2023-01-13T22:05:37.453Z,7.93
2023-01-13T22:08:08.915Z,8.37
2023-01-13T22:10:41.283Z,7.80
2023-01-13T22:13:30.755Z,6.93
2023-01-13T22:16:06.153Z,7.47
2023-01-13T22:18:36.868Z,7.67
2023-01-13T22:21:08.156Z,9.10
2023-01-13T22:23:57.523Z,8.50
2023-01-13T22:26:28.585Z,6.50
2023-01-13T22:28:59.642Z,6.40
2023-01-13T22:31:31.704Z,6.30
2023-01-13T22:34:02.397Z,8.47
2023-01-13T22:36:32.966Z,6.50
2023-01-13T22:39:04.911Z,8.30
2023-01-13T22:41:35.705Z,9.07
2023-01-13T22:44:06.477Z,8.20
2023-01-13T22:46:37.219Z,8.23
2023-01-13T22:49:08.050Z,8.27
2023-01-13T22:51:38.664Z,7.57
2023-01-13T22:54:09.776Z,8.00
2023-01-13T22:56:41.413Z,9.10
2023-01-13T22:59:14.639Z,9.63
2023-01-13T23:01:45.367Z,8.30
2023-01-13T23:04:16.236Z,8.20
2023-01-13T23:06:46.979Z,7.47
2023-01-13T23:09:17.639Z,8.13
2023-01-13T23:11:48.223Z,6.70
2023-01-13T23:14:18.812Z,8.57
2023-01-13T23:16:49.564Z,5.93
2023-01-13T23:19:20.279Z,7.45
2023-01-13T23:21:50.897Z,8.87
2023-01-13T23:24:24.669Z,8.77
2023-01-13T23:26:55.306Z,6.10
2023-01-13T23:29:26.022Z,5.90
2023-01-13T23:31:56.593Z,6.57
2023-01-13T23:34:27.560Z,8.17
2023-01-13T23:36:58.203Z,8.80
2023-01-13T23:39:29.090Z,6.47
2023-01-13T23:42:00.414Z,6.87
2023-01-13T23:44:31.128Z,5.80
2023-01-13T23:47:01.688Z,5.57
2023-01-13T23:49:32.482Z,6.40
2023-01-13T23:52:03.106Z,6.20
2023-01-13T23:54:33.953Z,6.63
2023-01-13T23:57:04.523Z,6.10
2023-01-13T23:59:35.159Z,5.53
